createdAt,value
2019-03-12T00:02:21.849Z,13.40
2019-03-12T00:06:22.923Z,17.40
2019-03-12T00:10:23.890Z,12.57
2019-03-12T00:14:24.899Z,11.33
2019-03-12T00:18:28.206Z,10.37
2019-03-12T00:22:28.549Z,16.20
2019-03-12T00:26:29.510Z,17.50
2019-03-12T00:30:30.380Z,19.03
2019-03-12T00:34:31.251Z,11.27
2019-03-12T00:38:32.155Z,12.90
2019-03-12T00:42:33.018Z,13.83
2019-03-12T00:46:34.004Z,18.00
2019-03-12T00:50:34.957Z,16.90
2019-03-12T00:54:35.851Z,9.13
2019-03-12T00:58:36.713Z,12.73
2019-03-12T01:02:37.595Z,11.70
2019-03-12T01:06:38.522Z,11.30
2019-03-12T01:10:39.441Z,14.90
2019-03-12T01:14:40.319Z,19.17
2019-03-12T01:18:41.170Z,9.77
2019-03-12T01:22:42.296Z,12.77
2019-03-12T01:26:43.260Z,16.03
2019-03-12T01:30:44.141Z,17.50
2019-03-12T01:34:45.101Z,13.27
2019-03-12T01:38:45.954Z,16.43
2019-03-12T01:42:46.865Z,11.90
2019-03-12T01:46:47.760Z,13.33
2019-03-12T01:50:48.635Z,11.67
2019-03-12T01:54:49.474Z,9.30
2019-03-12T01:58:50.349Z,14.27
2019-03-12T02:02:51.440Z,18.47
2019-03-12T02:06:52.304Z,12.70
2019-03-12T02:10:53.211Z,17.80
2019-03-12T02:14:54.076Z,14.30
2019-03-12T02:18:55.065Z,15.40
2019-03-12T02:22:56.050Z,17.10
2019-03-12T02:26:57.098Z,17.00
2019-03-12T02:30:58.077Z,11.57
2019-03-12T02:34:58.970Z,6.70
2019-03-12T02:38:59.853Z,16.57
2019-03-12T02:43:00.830Z,13.17
2019-03-12T02:47:02.186Z,11.60
2019-03-12T02:51:03.135Z,16.20
2019-03-12T02:55:06.366Z,14.43
2019-03-12T02:59:07.345Z,14.40
2019-03-12T03:03:08.434Z,12.57
2019-03-12T03:07:11.406Z,12.70
2019-03-12T03:11:12.396Z,10.03
2019-03-12T03:15:42.022Z,16.13
2019-03-12T03:19:43.006Z,9.57
2019-03-12T03:23:44.010Z,10.73
2019-03-12T03:27:44.939Z,10.87
2019-03-12T03:31:45.835Z,12.10
2019-03-12T03:35:46.896Z,10.23
2019-03-12T03:39:47.758Z,10.70
2019-03-12T03:43:48.723Z,7.20
2019-03-12T03:47:49.685Z,9.73
2019-03-12T03:51:50.580Z,17.33
2019-03-12T03:55:51.431Z,12.37
2019-03-12T03:59:52.284Z,11.53
2019-03-12T04:03:53.170Z,11.73
2019-03-12T04:07:54.064Z,8.03
2019-03-12T04:11:55.040Z,15.43
2019-03-12T04:15:55.930Z,9.30
2019-03-12T04:19:56.869Z,12.73
2019-03-12T04:23:57.889Z,12.70
2019-03-12T04:27:58.866Z,14.07
2019-03-12T04:31:59.728Z,18.63
2019-03-12T04:36:00.705Z,12.73
2019-03-12T04:40:03.170Z,11.70
2019-03-12T04:44:04.079Z,15.27
2019-03-12T04:48:04.964Z,9.90
2019-03-12T04:52:05.828Z,15.33
2019-03-12T04:56:06.690Z,11.93
2019-03-12T05:00:13.558Z,18.80
2019-03-12T05:04:14.430Z,12.43
2019-03-12T05:08:15.303Z,10.48
2019-03-12T05:12:16.249Z,11.57
2019-03-12T05:16:17.108Z,7.33
2019-03-12T05:20:18.259Z,13.40
2019-03-12T05:24:19.317Z,13.13
2019-03-12T05:28:20.212Z,10.13
2019-03-12T05:32:21.178Z,12.23
2019-03-12T05:36:22.065Z,12.40
2019-03-12T05:40:22.936Z,9.77
2019-03-12T05:44:23.918Z,15.03
2019-03-12T05:48:24.943Z,13.07
2019-03-12T05:52:25.795Z,7.50
2019-03-12T05:56:26.684Z,10.73
2019-03-12T06:00:27.668Z,6.07
2019-03-12T06:04:28.585Z,12.17
2019-03-12T06:08:29.413Z,9.60
2019-03-12T06:12:30.306Z,15.20
2019-03-12T06:16:31.222Z,11.67
2019-03-12T06:20:32.227Z,4.77
2019-03-12T06:24:33.324Z,14.80
2019-03-12T06:28:34.313Z,11.87
2019-03-12T06:32:43.192Z,8.17
2019-03-12T06:36:54.742Z,7.40
2019-03-12T06:41:06.548Z,9.67
2019-03-12T06:45:19.118Z,12.90
2019-03-12T06:49:21.893Z,10.93
2019-03-12T06:53:36.729Z,11.30
2019-03-12T06:57:43.315Z,16.37
2019-03-12T07:01:49.072Z,12.30
2019-03-12T07:06:00.771Z,9.73
2019-03-12T07:10:19.613Z,11.60
2019-03-12T07:14:31.463Z,11.37
2019-03-12T07:18:46.276Z,8.23
2019-03-12T07:22:49.158Z,8.90
2019-03-12T07:26:54.705Z,10.70
2019-03-12T07:31:00.285Z,13.47
2019-03-12T07:35:12.185Z,12.47
2019-03-12T07:39:23.893Z,15.07
2019-03-12T07:43:26.786Z,12.23
2019-03-12T07:47:44.838Z,13.60
2019-03-12T07:51:47.629Z,12.37
2019-03-12T07:56:05.548Z,11.97
2019-03-12T08:00:11.618Z,9.03
2019-03-12T08:04:31.292Z,10.50
2019-03-12T08:08:36.952Z,8.83
2019-03-12T08:12:42.492Z,15.13
2019-03-12T08:16:48.228Z,16.57
2019-03-12T08:21:03.291Z,10.63
2019-03-12T08:25:24.666Z,13.90
2019-03-12T08:29:44.118Z,10.90
2019-03-12T08:33:50.847Z,11.07
2019-03-12T08:37:54.319Z,18.27
2019-03-12T08:42:06.258Z,12.47
2019-03-12T08:46:09.053Z,13.73
2019-03-12T08:50:28.455Z,9.13
2019-03-12T08:54:33.972Z,10.73
2019-03-12T08:58:42.645Z,18.50
2019-03-12T09:02:45.514Z,13.03
2019-03-12T09:06:48.448Z,15.93
2019-03-12T09:10:51.274Z,11.27
2019-03-12T09:14:59.775Z,7.33
2019-03-12T09:19:17.883Z,7.90
2019-03-12T09:23:20.872Z,14.27
2019-03-12T09:27:23.755Z,8.13
2019-03-12T09:31:35.453Z,9.63
2019-03-12T09:35:50.201Z,10.13
2019-03-12T09:40:05.087Z,8.70
2019-03-12T09:44:20.273Z,8.87
2019-03-12T09:48:23.063Z,13.07
2019-03-12T09:52:28.811Z,12.40
2019-03-12T09:56:37.363Z,10.43
2019-03-12T10:00:56.992Z,10.03
2019-03-12T10:05:02.842Z,11.43
2019-03-12T10:09:09.445Z,11.90
2019-03-12T10:13:15.365Z,10.03
2019-03-12T10:17:18.257Z,8.33
2019-03-12T10:21:37.857Z,12.63
2019-03-12T10:25:53.331Z,12.00
2019-03-12T10:30:08.926Z,6.50
2019-03-12T10:34:14.792Z,11.87
2019-03-12T10:38:58.421Z,10.63
2019-03-12T10:43:08.196Z,12.23
2019-03-12T10:47:23.220Z,8.83
2019-03-12T10:51:24.315Z,12.30
2019-03-12T10:55:25.188Z,12.77
2019-03-12T10:59:26.091Z,8.63
2019-03-12T11:03:26.967Z,7.30
2019-03-12T11:07:27.934Z,15.23
2019-03-12T11:11:28.844Z,13.63
2019-03-12T11:15:29.743Z,10.07
2019-03-12T11:19:30.690Z,11.30
2019-03-12T11:23:31.701Z,8.53
2019-03-12T11:27:32.667Z,8.17
2019-03-12T11:31:33.751Z,11.13
2019-03-12T11:35:39.332Z,6.27
2019-03-12T11:39:37.730Z,11.70
2019-03-12T11:43:38.924Z,15.27
2019-03-12T11:47:39.988Z,10.67
2019-03-12T11:51:40.935Z,11.30
2019-03-12T11:55:41.926Z,10.70
2019-03-12T11:59:42.992Z,11.63
2019-03-12T12:03:44.391Z,8.13
2019-03-12T12:07:45.479Z,6.03
2019-03-12T12:11:46.460Z,14.50
2019-03-12T12:15:47.300Z,14.63
2019-03-12T12:19:48.232Z,8.93
2019-03-12T12:23:49.086Z,7.27
2019-03-12T12:27:50.101Z,7.10
2019-03-12T12:31:50.954Z,7.97
2019-03-12T12:35:51.925Z,9.27
2019-03-12T12:39:52.919Z,4.87
2019-03-12T12:43:53.921Z,9.27
2019-03-12T12:47:54.981Z,7.67
2019-03-12T12:51:56.090Z,6.03
2019-03-12T12:55:57.074Z,10.40
2019-03-12T12:59:57.963Z,12.27
2019-03-12T13:03:58.839Z,6.80
2019-03-12T13:07:59.726Z,6.57
2019-03-12T13:12:00.646Z,10.67
2019-03-12T13:16:01.641Z,8.43
2019-03-12T13:20:05.369Z,7.03
2019-03-12T13:24:06.375Z,13.83
2019-03-12T13:28:07.473Z,13.93
2019-03-12T13:32:13.371Z,10.03
2019-03-12T13:36:13.187Z,7.93
2019-03-12T13:40:18.941Z,6.73
2019-03-12T13:44:20.039Z,13.03
2019-03-12T13:48:21.021Z,8.53
2019-03-12T13:52:22.130Z,12.63
2019-03-12T13:56:23.104Z,11.20
2019-03-12T14:00:25.209Z,10.80
2019-03-12T14:04:26.324Z,8.67
2019-03-12T14:08:27.813Z,6.87
2019-03-12T14:12:28.799Z,5.67
2019-03-12T14:16:29.694Z,13.27
2019-03-12T14:21:04.955Z,9.43
2019-03-12T14:25:06.729Z,11.20
2019-03-12T14:29:08.019Z,9.03
2019-03-12T14:33:09.210Z,16.77
2019-03-12T14:37:10.259Z,9.87
2019-03-12T14:41:11.676Z,9.77
2019-03-12T14:45:16.594Z,8.50
2019-03-12T14:49:18.199Z,11.80
2019-03-12T14:53:22.081Z,9.70
2019-03-12T14:57:22.374Z,7.97
2019-03-12T15:01:23.388Z,12.77
2019-03-12T15:05:24.530Z,11.67
2019-03-12T15:09:25.485Z,12.70
2019-03-12T15:13:26.547Z,7.57
2019-03-12T15:17:27.575Z,6.03
2019-03-12T15:21:28.472Z,6.50
2019-03-12T15:25:29.449Z,8.17
2019-03-12T15:29:30.417Z,6.07
2019-03-12T15:33:31.319Z,7.77
2019-03-12T15:37:32.173Z,6.23
2019-03-12T15:41:33.033Z,13.80
2019-03-12T15:45:34.022Z,5.70
2019-03-12T15:49:35.279Z,4.17
2019-03-12T15:53:37.828Z,7.67
2019-03-12T15:57:38.914Z,9.07
2019-03-12T16:01:39.778Z,5.30
2019-03-12T16:05:40.794Z,6.07
2019-03-12T16:09:41.747Z,6.20
2019-03-12T16:13:42.769Z,15.80
2019-03-12T16:17:43.751Z,4.97
2019-03-12T16:21:44.739Z,4.80
2019-03-12T16:25:45.612Z,10.80
2019-03-12T16:29:46.639Z,4.77
2019-03-12T16:33:47.605Z,7.10
2019-03-12T16:37:48.522Z,10.27
2019-03-12T16:41:49.712Z,5.33
2019-03-12T16:45:50.762Z,4.83
2019-03-12T16:49:51.683Z,6.83
2019-03-12T16:53:52.572Z,7.47
2019-03-12T16:57:53.814Z,5.20
2019-03-12T17:01:54.824Z,8.17
2019-03-12T17:05:55.687Z,5.97
2019-03-12T17:09:56.567Z,6.10
2019-03-12T17:13:57.579Z,4.63
2019-03-12T17:17:58.549Z,3.93
2019-03-12T17:24:17.731Z,5.80
2019-03-12T17:28:18.612Z,7.10
2019-03-12T17:32:19.599Z,4.60
2019-03-12T17:36:20.699Z,4.93
2019-03-12T17:40:21.785Z,2.37
2019-03-12T17:44:22.815Z,5.93
2019-03-12T17:48:23.899Z,3.53
2019-03-12T17:52:24.794Z,3.52
2019-03-12T17:56:25.693Z,2.83
2019-03-12T18:00:31.414Z,3.63
2019-03-12T18:04:32.251Z,5.17
2019-03-12T18:08:33.383Z,5.80
2019-03-12T18:12:34.534Z,2.93
2019-03-12T18:16:41.024Z,3.37
2019-03-12T18:20:38.453Z,3.30
2019-03-12T18:24:39.648Z,3.07
2019-03-12T18:28:40.734Z,7.37
2019-03-12T18:32:41.658Z,2.83
2019-03-12T18:36:42.562Z,5.20
2019-03-12T18:40:43.477Z,8.37
2019-03-12T18:44:44.466Z,4.00
2019-03-12T18:48:45.378Z,3.00
2019-03-12T18:52:46.497Z,3.10
2019-03-12T18:56:47.811Z,3.93
2019-03-12T19:00:49.246Z,3.40
2019-03-12T19:04:50.303Z,3.60
2019-03-12T19:08:51.303Z,3.10
2019-03-12T19:12:52.312Z,5.33
2019-03-12T19:16:53.586Z,4.37
2019-03-12T19:20:54.603Z,4.23
2019-03-12T19:24:55.574Z,2.90
2019-03-12T19:28:56.751Z,7.03
2019-03-12T19:33:14.593Z,6.17
2019-03-12T19:37:15.689Z,4.90
2019-03-12T19:41:16.948Z,4.43
2019-03-12T19:45:18.050Z,3.07
2019-03-12T19:49:19.048Z,6.00
2019-03-12T19:53:20.024Z,2.57
2019-03-12T19:57:21.141Z,5.77
2019-03-12T20:01:22.758Z,4.67
2019-03-12T20:05:23.717Z,4.67
2019-03-12T20:09:28.526Z,2.57
2019-03-12T20:14:07.268Z,3.60
2019-03-12T20:18:21.265Z,3.70
2019-03-12T20:22:59.661Z,3.03
2019-03-12T20:27:24.227Z,3.50
2019-03-12T20:31:45.753Z,3.40
2019-03-12T20:36:13.390Z,3.33
2019-03-12T20:40:53.432Z,2.40
2019-03-12T20:45:31.877Z,2.50
2019-03-12T20:50:08.833Z,3.77
2019-03-12T20:54:22.343Z,2.57
2019-03-12T20:58:57.241Z,2.30
2019-03-12T21:03:08.175Z,4.00
2019-03-12T21:07:15.742Z,5.03
2019-03-12T21:11:37.062Z,2.80
2019-03-12T21:16:12.410Z,5.30
2019-03-12T21:20:41.366Z,3.07
2019-03-12T21:24:51.606Z,3.00
2019-03-12T21:29:24.669Z,3.60
2019-03-12T21:33:25.620Z,2.27
2019-03-12T21:37:27.206Z,4.23
2019-03-12T21:41:28.119Z,3.03
2019-03-12T21:45:29.093Z,4.03
2019-03-12T21:49:30.281Z,2.50
2019-03-12T21:53:31.324Z,2.13
2019-03-12T21:57:32.196Z,5.40
2019-03-12T22:01:33.338Z,2.20
2019-03-12T22:05:34.384Z,2.57
2019-03-12T22:09:35.238Z,2.63
2019-03-12T22:13:36.138Z,5.27
2019-03-12T22:17:37.120Z,4.10
2019-03-12T22:21:39.902Z,4.20
2019-03-12T22:25:40.889Z,3.77
2019-03-12T22:29:41.851Z,2.30
2019-03-12T22:33:42.720Z,2.43
2019-03-12T22:37:43.639Z,6.67
2019-03-12T22:41:44.549Z,8.03
2019-03-12T22:45:45.489Z,3.07
2019-03-12T22:49:46.489Z,3.07
2019-03-12T22:53:47.395Z,5.20
2019-03-12T22:57:48.267Z,3.50
2019-03-12T23:01:49.192Z,3.63
2019-03-12T23:05:50.126Z,2.80
2019-03-12T23:09:51.206Z,5.90
2019-03-12T23:13:52.328Z,3.50
2019-03-12T23:17:53.403Z,2.43
2019-03-12T23:21:54.401Z,2.20
2019-03-12T23:25:55.689Z,2.20
2019-03-12T23:29:56.644Z,1.27
2019-03-12T23:33:57.645Z,4.80
2019-03-12T23:37:58.627Z,1.07
2019-03-12T23:41:59.709Z,1.40
2019-03-12T23:46:00.680Z,1.10
2019-03-12T23:50:01.749Z,1.70
2019-03-12T23:54:02.973Z,1.33
2019-03-12T23:58:03.935Z,0.97
